Time;durP1;ratioP1;P1;durP2;ratioP2;P2;SDS_P1;SDS_P2;PMS_P1;PMS_P2;Temp;Humidity;BMP_temperature;BMP_pressure;BME280_temperature;BME280_humidity;BME280_pressure;Samples;Min_cycle;Max_cycle;Signal;HPM_P1;HPM_P2
2022/04/08 00:02:19;;;;;;;3.97;1.50;;;;;;;;;;5031217;28;20206;-76
2022/04/08 00:04:46;;;;;;;5.77;1.67;;;;;;;;;;5030760;28;20194;-77
2022/04/08 00:07:13;;;;;;;4.17;1.50;;;;;;;;;;5031095;28;20225;-77
2022/04/08 00:09:41;;;;;;;4.47;1.80;;;;;;;;;;5030556;28;20214;-77
2022/04/08 00:12:09;;;;;;;4.33;1.60;;;;;;;;;;5031193;28;20303;-77
2022/04/08 00:14:38;;;;;;;3.33;1.60;;;;;;;;;;5030374;28;20753;-77
2022/04/08 00:17:05;;;;;;;4.37;1.60;;;;;;;;;;5031158;28;20558;-77
2022/04/08 00:19:33;;;;;;;4.03;1.60;;;;;;;;;;5030454;28;20306;-76
2022/04/08 00:22:00;;;;;;;3.63;1.40;;;;;;;;;;5030913;28;20214;-76
2022/04/08 00:24:27;;;;;;;5.57;1.50;;;;;;;;;;5030114;28;20224;-76
2022/04/08 00:26:54;;;;;;;4.73;1.60;;;;;;;;;;5023415;28;20224;-76
2022/04/08 00:29:21;;;;;;;3.50;1.60;;;;;;;;;;5022310;28;20276;-77
2022/04/08 00:31:57;;;;;;;6.03;2.30;;;;;;;;;;5024002;28;20217;-77
2022/04/08 00:34:24;;;;;;;4.77;1.67;;;;;;;;;;5028497;28;20215;-76
2022/04/08 00:36:51;;;;;;;4.20;1.70;;;;;;;;;;5031069;28;20289;-77
2022/04/08 00:39:18;;;;;;;3.67;1.60;;;;;;;;;;5030418;28;20312;-76
2022/04/08 00:41:46;;;;;;;4.47;1.87;;;;;;;;;;5032514;28;20592;-77
2022/04/08 00:44:13;;;;;;;4.67;1.87;;;;;;;;;;5034907;28;20229;-75
2022/04/08 00:46:40;;;;;;;4.57;1.90;;;;;;;;;;5033240;28;20249;-77
2022/04/08 00:49:09;;;;;;;4.93;1.43;;;;;;;;;;5034579;28;20232;-77
2022/04/08 00:51:36;;;;;;;4.90;1.90;;;;;;;;;;5034067;28;20226;-77
2022/04/08 00:54:04;;;;;;;6.97;1.80;;;;;;;;;;5034454;28;20293;-77
2022/04/08 00:56:31;;;;;;;5.20;1.63;;;;;;;;;;5033594;28;20237;-77
2022/04/08 00:58:59;;;;;;;4.87;1.70;;;;;;;;;;5034067;28;20245;-77
2022/04/08 01:01:26;;;;;;;4.57;2.00;;;;;;;;;;5034201;28;20295;-77
2022/04/08 01:03:53;;;;;;;4.90;2.33;;;;;;;;;;5034119;28;20214;-78
2022/04/08 01:06:22;;;;;;;4.50;1.97;;;;;;;;;;5034084;28;20264;-77
2022/04/08 01:08:50;;;;;;;5.97;1.90;;;;;;;;;;5030459;28;20266;-77
2022/04/08 01:11:18;;;;;;;4.90;2.10;;;;;;;;;;5034118;28;20210;-77
2022/04/08 01:13:45;;;;;;;5.30;2.00;;;;;;;;;;5033914;28;20236;-77
2022/04/08 01:16:12;;;;;;;6.47;2.30;;;;;;;;;;5034666;28;20206;-76
2022/04/08 01:18:40;;;;;;;3.37;2.07;;;;;;;;;;5046305;28;20222;-77
2022/04/08 01:21:08;;;;;;;3.10;2.00;;;;;;;;;;5029182;28;20221;-77
2022/04/08 01:23:37;;;;;;;3.50;1.50;;;;;;;;;;5032313;28;20225;-77
2022/04/08 01:26:06;;;;;;;5.03;1.60;;;;;;;;;;5031151;28;20226;-77
2022/04/08 01:28:34;;;;;;;3.17;2.10;;;;;;;;;;5033543;28;20230;-77
2022/04/08 01:31:01;;;;;;;4.47;2.07;;;;;;;;;;5033709;28;20210;-77
2022/04/08 01:33:29;;;;;;;5.60;2.03;;;;;;;;;;5033686;28;20198;-77
2022/04/08 01:35:56;;;;;;;2.90;1.60;;;;;;;;;;5033475;28;20198;-77
2022/04/08 01:38:23;;;;;;;2.40;1.80;;;;;;;;;;5028415;28;20225;-76
2022/04/08 01:40:50;;;;;;;6.57;1.90;;;;;;;;;;5032976;28;20240;-77
2022/04/08 01:43:19;;;;;;;3.77;1.60;;;;;;;;;;5027181;28;20198;-77
2022/04/08 01:45:46;;;;;;;3.33;1.60;;;;;;;;;;5028930;28;20207;-77
2022/04/08 01:48:13;;;;;;;4.77;1.83;;;;;;;;;;5033600;28;20297;-77
2022/04/08 01:50:40;;;;;;;4.53;1.77;;;;;;;;;;5033590;28;20214;-77
2022/04/08 01:53:08;;;;;;;5.23;1.70;;;;;;;;;;5032679;28;20244;-77
2022/04/08 01:55:35;;;;;;;7.57;1.70;;;;;;;;;;5033310;28;20209;-77
2022/04/08 01:58:03;;;;;;;3.57;1.90;;;;;;;;;;5032063;28;20220;-77
2022/04/08 02:00:31;;;;;;;4.80;1.90;;;;;;;;;;5024194;28;20203;-77
2022/04/08 02:03:00;;;;;;;3.43;1.63;;;;;;;;;;5030788;28;20281;-77
2022/04/08 02:05:27;;;;;;;3.13;1.70;;;;;;;;;;5031282;28;20237;-77
2022/04/08 02:07:54;;;;;;;3.63;1.80;;;;;;;;;;5032646;28;20309;-76
2022/04/08 02:10:23;;;;;;;5.57;2.00;;;;;;;;;;5032972;28;20226;-77
2022/04/08 02:12:51;;;;;;;3.77;2.00;;;;;;;;;;5033526;28;20209;-77
2022/04/08 02:15:28;;;;;;;4.20;1.73;;;;;;;;;;5032915;28;20265;-77
2022/04/08 02:17:57;;;;;;;4.13;1.63;;;;;;;;;;5032412;28;20205;-77
2022/04/08 02:20:24;;;;;;;5.20;1.83;;;;;;;;;;5032908;28;20212;-77
2022/04/08 02:22:52;;;;;;;2.93;1.87;;;;;;;;;;5032747;28;20194;-77
2022/04/08 02:25:19;;;;;;;5.30;1.70;;;;;;;;;;5032679;28;20300;-77
2022/04/08 02:27:46;;;;;;;4.20;2.00;;;;;;;;;;5032516;28;20253;-77
2022/04/08 02:30:13;;;;;;;4.20;1.70;;;;;;;;;;5032599;28;20328;-77
2022/04/08 02:32:41;;;;;;;4.33;1.97;;;;;;;;;;5032301;28;20209;-77
2022/04/08 02:35:10;;;;;;;3.97;1.33;;;;;;;;;;5032337;28;20288;-77
2022/04/08 02:37:37;;;;;;;5.33;2.03;;;;;;;;;;5032487;28;20233;-76
2022/04/08 02:40:05;;;;;;;3.47;1.60;;;;;;;;;;5032528;28;20253;-77
2022/04/08 02:42:32;;;;;;;4.20;1.70;;;;;;;;;;5032830;28;20284;-77
2022/04/08 02:44:59;;;;;;;4.87;1.53;;;;;;;;;;5032010;28;20206;-77
2022/04/08 02:47:26;;;;;;;3.17;1.63;;;;;;;;;;5032155;28;20329;-77
2022/04/08 02:49:53;;;;;;;5.83;1.73;;;;;;;;;;5032201;28;20252;-77
2022/04/08 02:52:22;;;;;;;4.23;1.60;;;;;;;;;;5032027;28;20273;-76
2022/04/08 02:54:49;;;;;;;2.23;1.50;;;;;;;;;;5032490;28;20244;-77
2022/04/08 02:57:16;;;;;;;6.17;2.17;;;;;;;;;;5031744;28;20222;-76
2022/04/08 02:59:43;;;;;;;3.83;2.10;;;;;;;;;;5032275;28;20230;-77
2022/04/08 03:02:11;;;;;;;5.30;1.80;;;;;;;;;;5029388;28;20302;-77
2022/04/08 03:04:38;;;;;;;2.90;1.73;;;;;;;;;;5031584;28;20201;-77
2022/04/08 03:07:05;;;;;;;3.90;1.60;;;;;;;;;;5031622;28;20232;-76
2022/04/08 03:09:34;;;;;;;3.53;1.80;;;;;;;;;;5031937;28;20230;-76
2022/04/08 03:12:01;;;;;;;4.47;2.27;;;;;;;;;;5031579;28;20234;-77
2022/04/08 03:14:28;;;;;;;2.83;1.70;;;;;;;;;;5032157;28;20220;-77
2022/04/08 03:16:55;;;;;;;4.83;1.87;;;;;;;;;;5031970;28;20240;-77
2022/04/08 03:19:22;;;;;;;5.83;1.77;;;;;;;;;;5031831;28;20221;-77
2022/04/08 03:21:50;;;;;;;5.83;2.20;;;;;;;;;;5031478;28;20266;-77
2022/04/08 03:24:17;;;;;;;4.87;1.77;;;;;;;;;;5031606;28;20269;-77
2022/04/08 03:26:47;;;;;;;6.47;1.77;;;;;;;;;;5031341;28;20221;-77
2022/04/08 03:29:15;;;;;;;5.37;1.73;;;;;;;;;;5031779;28;20229;-77
2022/04/08 03:31:42;;;;;;;4.37;2.00;;;;;;;;;;5031609;28;20200;-77
2022/04/08 03:34:09;;;;;;;5.97;2.00;;;;;;;;;;5031777;28;20292;-77
2022/04/08 03:36:36;;;;;;;5.53;2.00;;;;;;;;;;5031717;28;20198;-77
2022/04/08 03:39:03;;;;;;;5.93;1.70;;;;;;;;;;5031287;28;20230;-76
2022/04/08 03:41:31;;;;;;;3.33;1.90;;;;;;;;;;5031544;28;20205;-77
2022/04/08 03:43:59;;;;;;;3.53;1.63;;;;;;;;;;5031306;28;20245;-77
2022/04/08 03:46:26;;;;;;;4.30;1.90;;;;;;;;;;5030902;28;20204;-77
2022/04/08 03:48:54;;;;;;;2.70;1.70;;;;;;;;;;5031351;28;20361;-77
2022/04/08 03:51:21;;;;;;;3.40;1.73;;;;;;;;;;5031440;28;20205;-77
2022/04/08 03:53:48;;;;;;;8.67;1.80;;;;;;;;;;5031206;28;20202;-77
2022/04/08 03:56:15;;;;;;;5.50;1.70;;;;;;;;;;5031394;28;20216;-77
2022/04/08 03:58:42;;;;;;;3.50;2.10;;;;;;;;;;5031398;28;20257;-77
2022/04/08 04:01:12;;;;;;;3.80;1.60;;;;;;;;;;5031835;28;20304;-77
2022/04/08 04:03:39;;;;;;;5.17;1.63;;;;;;;;;;5028279;28;20202;-77
2022/04/08 04:06:06;;;;;;;6.30;1.83;;;;;;;;;;5031550;28;20216;-77
2022/04/08 04:08:33;;;;;;;3.97;1.50;;;;;;;;;;5031483;28;20236;-77
2022/04/08 04:11:00;;;;;;;5.07;1.70;;;;;;;;;;5035187;28;20213;-76
2022/04/08 04:13:30;;;;;;;4.50;1.90;;;;;;;;;;5054285;28;20217;-77
2022/04/08 04:15:57;;;;;;;3.97;1.50;;;;;;;;;;5048682;28;20205;-77
2022/04/08 04:18:26;;;;;;;2.83;1.40;;;;;;;;;;5048983;28;20289;-77
2022/04/08 04:20:54;;;;;;;3.70;1.70;;;;;;;;;;5052855;28;20209;-77
2022/04/08 04:23:21;;;;;;;4.00;1.60;;;;;;;;;;5055367;28;20202;-77
2022/04/08 04:25:48;;;;;;;6.77;1.90;;;;;;;;;;5054509;28;20206;-77
2022/04/08 04:28:15;;;;;;;5.13;1.80;;;;;;;;;;5051512;28;20226;-77
2022/04/08 04:30:43;;;;;;;4.63;2.20;;;;;;;;;;5034923;28;20198;-77
2022/04/08 04:33:11;;;;;;;5.30;1.87;;;;;;;;;;5035655;28;20293;-78
2022/04/08 04:35:40;;;;;;;6.87;1.90;;;;;;;;;;5047965;28;20229;-78
2022/04/08 04:38:07;;;;;;;6.77;1.83;;;;;;;;;;5050725;28;20206;-77
2022/04/08 04:40:34;;;;;;;5.90;1.73;;;;;;;;;;5040272;28;20232;-78
2022/04/08 04:43:02;;;;;;;4.40;1.80;;;;;;;;;;5024872;28;20206;-78
2022/04/08 04:45:29;;;;;;;5.00;1.87;;;;;;;;;;5027824;28;20207;-78
2022/04/08 04:47:56;;;;;;;3.47;1.80;;;;;;;;;;5028926;28;20285;-77
2022/04/08 04:50:23;;;;;;;7.10;1.90;;;;;;;;;;5020241;28;20205;-77
2022/04/08 04:52:52;;;;;;;10.30;1.97;;;;;;;;;;5024125;28;20289;-81
2022/04/08 04:55:19;;;;;;;6.47;1.93;;;;;;;;;;5025072;28;20225;-82
